Tiempo atmosférico en la estación meteorológica de Villayón, Oneta, Asturias (410 m.)



Fecha
DESCASC
Temp. máxima en grados centígrados (hora)
DESCASC
Temp. mínima en grados centígrados (hora)
DESCASC
Temp. media en grados centígrados
DESCASC
Racha de viento máxima en m/sg (hora)
DESCASC
Velocidad máxima media en intervalos de 10 minutos(hora)
DESCASC
Precipitaciones diarias en mm
DESCASC
Precipitaciones de 00:00 a 06:00 en mm
DESCASC
Precipitaciones de 06:00 a 12:00 en mm
DESCASC
Precipitaciones de 12:00 a 18:00 en mm
DESCASC
Precipitaciones de 18:00 a 24:00 en mm
DESCASC
26-01-2021 16.3 (14:50) 7.7 (00:00) 12 8.61 (10:40) 2.78 (10:50) 0.6 0 0 0 0.6
25-01-2021 8.8 (14:30) 7.1 (00:00) 8 7.78 (05:50) 5 (05:50) 37.6 20.2 17.2 0.2 0
24-01-2021 10.3 (16:50) 6.1 (00:00) 8.2 14.44 (02:30) 7.5 (01:10) 5.2 4.4 0.2 0 0.6
23-01-2021 12.6 (16:50) 6.3 (00:00) 9.5 21.39 (19:30) 8.89 (16:40) 11.2 0.2 4.2 1 5.8
22-01-2021 8.7 (17:00) 3.5 (00:00) 6.1 14.17 (01:40) 6.67 (01:40) 27 17.8 8.4 0.8 0
21-01-2021 13.6 (14:10) 6.7 (00:00) 10.2 22.5 (11:00) 9.17 (11:20) 8 0 0.8 0.2 7
20-01-2021 12.5 (10:40) 9.6 (00:00) 11.1 21.39 (08:10) 12.78 (08:50) 2.4 0 0 2.2 0.2
19-01-2021 13.3 (14:50) 6.9 (00:00) 10.1 13.61 (21:50) 7.5 (21:00) 0 0 0 0 0
18-01-2021 12.1 (15:40) 5.8 (00:00) 9 5.28 (23:59) 3.33 (23:50) 0.2 0.2 0 0 0
17-01-2021 8.1 (15:00) 3.9 (00:00) 6 6.94 (11:40) 3.89 (11:40) 1.8 0 0 0.4 1.4
16-01-2021 11.6 (16:20) 0.9 (00:00) 6.3 5 (06:40) 3.33 (11:50) 0 0 0 0 0
15-01-2021 9.3 (16:10) 1.5 (00:00) 5.4 4.17 (19:20) 2.5 (08:10) 0 0 0 0 0
14-01-2021 5.6 (20:10) -0.7 (06:20) 2.4 6.67 (07:00) 3.61 (06:30) 3.6 0 0 2.4 1.2
13-01-2021 8.9 (16:50) 0.8 (00:00) 4.8 3.06 (12:00) 2.22 (17:20) 0 0 0 0 0
12-01-2021 8.4 (14:50) 0.2 (00:00) 4.3 4.44 (17:00) 3.33 (17:30) 0 0 0 0 0
11-01-2021 7.3 (14:10) 2.7 (00:00) 5 7.78 (11:00) 4.72 (14:30) 0 0 0 0 0
10-01-2021 5.4 (13:40) 1.7 (01:50) 3.6 13.06 (13:10) 7.78 (04:50) 3.8 3.6 0 0 0.2
09-01-2021 3.2 (14:30) 0.3 (00:00) 1.8 18.33 (18:10) 10.28 (16:30) 8.4 0 0.6 2.6 5.2
08-01-2021 5.5 (16:10) 0.6 (00:00) 3.1 9.17 (13:10) 5.83 (11:40) 0 0 0 0 0
07-01-2021 4.9 (15:50) -1.9 (-00:0) 1.5 6.11 (23:10) 3.33 (23:10) 0.2 0 0.2 0 0
06-01-2021 6.2 (15:10) 0.2 (00:00) 3.2 5.56 (18:10) 3.61 (18:10) 0 0 0 0 0
05-01-2021 2.9 (16:20) -0.4 (00:00) 1.3 4.44 (14:00) 2.22 (14:00) 7.6 1.6 4.6 1.4 0
04-01-2021 2.9 (11:10) -0.2 (00:00) 1.4 5.56 (15:00) 3.33 (17:40) 18.2 5 6 3.8 3.4
03-01-2021 3.3 (14:30) 0.7 (00:00) 2 6.39 (12:30) 3.33 (14:10) 15.2 2.6 2.4 6.2 4
02-01-2021 2.7 (14:40) 0.4 (00:00) 1.6 4.44 (01:10) 2.78 (01:10) 7.4 1.2 1.6 3.4 1.2
01-01-2021 5 (15:20) 0.6 (00:00) 2.8 16.39 (17:10) 10.28 (17:10) 10.2 4.8 3.2 1.2 1
31-12-2020 7.1 (10:00) 1.7 (00:00) 4.4 13.33 (18:00) 8.06 (18:00) 34.6 0.2 7.2 18.8 8.4
30-12-2020 6.9 (16:00) 2.5 (00:00) 4.7 11.39 (18:40) 4.72 (17:10) 4.4 3.4 0.4 0.2 0.4
29-12-2020 5.3 (00:40) 1.6 (00:00) 3.5 13.61 (07:30) 8.33 (07:30) 17.2 3.8 5.6 4.2 3.6
28-12-2020 7.5 (14:40) 2.4 (00:00) 5 21.39 (00:30) 11.39 (00:30) 11.6 5.2 1.8 1.2 3.4

Gráficas

Temp. máximas Temp. mínimas Temp. medias Precipitaciones Rachas de viento máximas Velocidades máximas media en intervalos de 10 minutos

Datos horarios

Fecha y hora oficial Temperatura (ºC) Velocidad del viento (km/h) Dirección del viento Racha (km/h) Dirección de racha Precipitación (mm) Presión (hPa) Tendencia (hPa) Humedad (%)
2021-01-26 23:00:00 14.4 7 Noroeste 15 Sudoeste 0 -- -- 91
2021-01-26 22:00:00 14.3 7 Oeste 16 Oeste 0 -- -- 94
2021-01-26 21:00:00 13.9 7 Noroeste 18 Sudoeste 0 -- -- 96
2021-01-26 20:00:00 13.8 4 Noroeste 15 Sudoeste 0 -- -- 98
2021-01-26 19:00:00 13.8 4 Norte 16 Noroeste 0.6 -- -- 97
2021-01-26 18:00:00 14.8 7 Noroeste 24 Oeste 0 -- -- 89
2021-01-26 17:00:00 15.2 9 Oeste 22 Sur 0 -- -- 87
2021-01-26 16:00:00 15.8 7 Noroeste 18 Sur 0 -- -- 85
2021-01-26 15:00:00 16.2 6 Noroeste 20 Oeste 0 -- -- 83
2021-01-26 14:00:00 15 8 Sudoeste 22 Sur 0 -- -- 87
2021-01-26 13:00:00 14.6 5 Noroeste 18 Oeste 0 -- -- 88
2021-01-26 12:00:00 14.4 8 Noroeste 24 Sudoeste 0 -- -- 87
2021-01-26 11:00:00 13.6 8 Norte 31 Sudoeste 0 -- -- 88
2021-01-26 10:00:00 12.7 6 Noroeste 21 Sudoeste 0 -- -- 93
2021-01-26 09:00:00 11.9 4 Noroeste 17 Sur 0 -- -- 96
2021-01-26 08:00:00 11.7 5 Oeste 14 Sudoeste 0 -- -- 96
2021-01-26 07:00:00 11.6 4 Noroeste 21 Sur 0 -- -- 96
2021-01-26 06:00:00 11.5 7 Sudoeste 23 Sudoeste 0 -- -- 95
2021-01-26 05:00:00 11 5 Oeste 10 Sudoeste 0 -- -- 96
2021-01-26 04:00:00 10.4 5 Noroeste 12 Noroeste 0 -- -- 98
2021-01-26 03:00:00 9.8 3 Oeste 10 Sudeste 0 -- -- 100
2021-01-26 02:00:00 9.3 5 Sudeste 10 Este 0 -- -- 100
2021-01-26 01:00:00 8.4 5 Sudeste 11 Este 0 -- -- 100
2021-01-26 00:00:00 7.7 4 Sur 6 Sudoeste 0 -- -- 100
2021-01-25 23:00:00 7.8 0 Calma 4 Sudeste 0 -- -- 100
2021-01-25 22:00:00 7.7 0 Calma 7 Noroeste 0 -- -- 100
2021-01-25 21:00:00 7.7 4 Oeste 5 Noroeste 0 -- -- 100
2021-01-25 20:00:00 7.8 2 Sudoeste 4 Sudeste 0 -- -- 100
2021-01-25 19:00:00 7.8 2 Noroeste 8 Sudeste 0 -- -- 100
2021-01-25 18:00:00 7.9 5 Este 13 Este 0 -- -- 100
2021-01-25 17:00:00 8.2 5 Noroeste 10 Noroeste 0 -- -- 100
2021-01-25 16:00:00 8.7 4 Oeste 11 Noroeste 0 -- -- 100
2021-01-25 15:00:00 8.5 5 Noroeste 9 Noroeste 0 -- -- 100
2021-01-25 14:00:00 8.5 3 Noroeste 9 Noroeste 0 -- -- 100
2021-01-25 13:00:00 7.4 8 Noroeste 12 Noroeste 0.2 -- -- 100
2021-01-25 12:00:00 7.3 9 Sudeste 14 Este 0.4 -- -- 100
2021-01-25 11:00:00 7.2 2 Noroeste 7 Noroeste 2.6 -- -- 100
2021-01-25 10:00:00 7.2 3 Noroeste 20 Este 3 -- -- 100
2021-01-25 09:00:00 7.2 9 Sudeste 17 Este 3.2 -- -- 100
2021-01-25 08:00:00 7.3 4 Noroeste 10 Este 4.2 -- -- 100
2021-01-25 07:00:00 7.8 5 Este 24 Este 3.8 -- -- 100
2021-01-25 06:00:00 7.7 11 Nordeste 28 Este 4.6 -- -- 100
2021-01-25 05:00:00 7.5 5 Norte 15 Sudeste 4.6 -- -- 100
2021-01-25 04:00:00 8 3 Nordeste 11 Este 3.6 -- -- 99
2021-01-25 03:00:00 7.8 0 Calma 12 Sudeste 4.4 -- -- 99
2021-01-25 02:00:00 7.5 0 Calma 14 Sur 1.8 -- -- 98
2021-01-25 01:00:00 7.8 6 Oeste 21 Sur 1.2 -- -- 95
2021-01-25 00:00:00 8.2 7 Noroeste 33 Sur 0.6 -- -- 92
2021-01-24 23:00:00 9 14 Sudoeste 37 Sudoeste 0 -- -- 85
2021-01-24 22:00:00 9.2 11 Oeste 40 Sur 0 -- -- 84
2021-01-24 21:00:00 9.2 13 Oeste 36 Sudoeste 0 -- -- 86
2021-01-24 20:00:00 9.5 13 Oeste 39 Sur 0 -- -- 83
2021-01-24 19:00:00 9.4 6 Oeste 30 Sudoeste 0 -- -- 80
2021-01-24 18:00:00 9.4 8 Noroeste 24 Sudoeste 0 -- -- 79
2021-01-24 17:00:00 10.2 6 Noroeste 21 Sudoeste 0 -- -- 75
2021-01-24 16:00:00 10 10 Oeste 27 Oeste 0 -- -- 80
2021-01-24 15:00:00 8.8 10 Oeste 28 Oeste 0 -- -- 88
2021-01-24 14:00:00 9 11 Noroeste 27 Sudoeste 0 -- -- 85
2021-01-24 13:00:00 9.1 10 Noroeste 30 Sudoeste 0 -- -- 79
2021-01-24 12:00:00 9.1 13 Oeste 40 Sur 0 -- -- 79
2021-01-24 11:00:00 8 14 Sudoeste 37 Sudoeste 0 -- -- 82
2021-01-24 10:00:00 7.1 7 Oeste 26 Sur 0 -- -- 86
2021-01-24 09:00:00 6.8 9 Sudoeste 27 Oeste 0 -- -- 89
2021-01-24 08:00:00 6.5 6 Oeste 20 Oeste 0.2 -- -- 92
2021-01-24 07:00:00 6.9 5 Oeste 22 Sudoeste 0 -- -- 86
2021-01-24 06:00:00 7 12 Oeste 26 Sudoeste 0 -- -- 84
2021-01-24 05:00:00 6.9 10 Oeste 25 Oeste 0 -- -- 88
2021-01-24 04:00:00 6.7 18 Noroeste 36 Noroeste 0 -- -- 97
2021-01-24 03:00:00 6.1 18 Noroeste 52 Oeste 0 -- -- 100
2021-01-24 02:00:00 6.1 22 Noroeste 48 Noroeste 1 -- -- 100
2021-01-24 01:00:00 6.6 24 Noroeste 45 Oeste 3.4 -- -- 100
2021-01-24 00:00:00 7 18 Noroeste 37 Oeste 3 -- -- 100
2021-01-23 23:00:00 8.2 14 Noroeste 38 Sudoeste 1.6 -- -- 94
2021-01-23 22:00:00 9 18 Oeste 51 Noroeste 1 -- -- 86
2021-01-23 21:00:00 10.4 22 Oeste 64 Oeste 0 -- -- 74
2021-01-23 20:00:00 10.9 21 Noroeste 77 Oeste 0.2 -- -- 70
2021-01-23 19:00:00 11.1 25 Oeste 57 Oeste 0 -- -- 75
2021-01-23 18:00:00 11.5 17 Oeste 63 Noroeste 0 -- -- 75
2021-01-23 17:00:00 12.6 31 Noroeste 59 Oeste 0 -- -- 75
2021-01-23 16:00:00 11.3 12 Noroeste 35 Sudoeste 0.2 -- -- 93
2021-01-23 15:00:00 11 12 Noroeste 53 Sudoeste 0.4 -- -- 90
2021-01-23 14:00:00 11.6 25 Sudoeste 60 Sudoeste 0 -- -- 81
2021-01-23 13:00:00 10.3 18 Oeste 50 Sudoeste 0.4 -- -- 84
2021-01-23 12:00:00 7.4 9 Oeste 40 Noroeste 4 -- -- 96
2021-01-23 11:00:00 7.7 12 Oeste 39 Sudeste 0 -- -- 89
2021-01-23 10:00:00 7 18 Sudoeste 51 Sudoeste 0.2 -- -- 85
2021-01-23 09:00:00 7.1 15 Sudoeste 57 Sudoeste 0 -- -- 83
2021-01-23 08:00:00 7.3 10 Noroeste 37 Sudoeste 0 -- -- 82
2021-01-23 07:00:00 7.6 15 Noroeste 46 Sudoeste 0 -- -- 83
2021-01-23 06:00:00 7.5 17 Sudoeste 52 Sur 0 -- -- 82
2021-01-23 05:00:00 7.5 15 Oeste 49 Sudoeste 0 -- -- 79
2021-01-23 04:00:00 6.7 12 Noroeste 38 Sudoeste 0.2 -- -- 83
2021-01-23 03:00:00 7.1 10 Noroeste 44 Sudoeste 0 -- -- 80
2021-01-23 02:00:00 7 8 Noroeste 51 Sudoeste 0 -- -- 78
2021-01-23 01:00:00 6.6 9 Noroeste 35 Sudoeste 0 -- -- 86
2021-01-23 00:00:00 6.5 10 Noroeste 30 Sur 0 -- -- 87
2021-01-22 23:00:00 7.1 9 Oeste 36 Sudoeste 0 -- -- 82
2021-01-22 22:00:00 7.1 9 Oeste 42 Sudoeste 0 -- -- 82
2021-01-22 21:00:00 6.9 13 Oeste 33 Sudoeste 0 -- -- 84
2021-01-22 20:00:00 6.9 9 Noroeste 39 Sudoeste 0 -- -- 82
2021-01-22 19:00:00 6.8 8 Oeste 28 Sudoeste 0 -- -- 81
2021-01-22 18:00:00 8 9 Noroeste 27 Noroeste 0 -- -- 71
2021-01-22 17:00:00 8.7 13 Oeste 40 Sudoeste 0 -- -- 69
2021-01-22 16:00:00 7.7 13 Noroeste 32 Oeste 0.2 -- -- 79
2021-01-22 15:00:00 7.4 11 Noroeste 27 Oeste 0.4 -- -- 83
2021-01-22 14:00:00 6.8 9 Oeste 29 Sudoeste 0.2 -- -- 82
2021-01-22 13:00:00 6.4 10 Noroeste 21 Oeste 0 -- -- 82
2021-01-22 12:00:00 5.4 4 Sudoeste 29 Sudoeste 0 -- -- 90
2021-01-22 11:00:00 3.6 6 Sudeste 43 Oeste 1 -- -- 98
2021-01-22 10:00:00 4.2 10 Oeste 40 Oeste 1.8 -- -- 94
2021-01-22 09:00:00 4.4 21 Noroeste 39 Oeste 1.6 -- -- 98
2021-01-22 08:00:00 4.8 10 Oeste 33 Noroeste 1.8 -- -- 99
2021-01-22 07:00:00 4.8 8 Oeste 27 Oeste 2.2 -- -- 97
2021-01-22 06:00:00 5.1 10 Noroeste 27 Oeste 3 -- -- 97
2021-01-22 05:00:00 5.7 13 Noroeste 33 Sur 0.2 -- -- 92
2021-01-22 04:00:00 5.6 16 Sudoeste 43 Sudoeste 3.2 -- -- 94
2021-01-22 03:00:00 6.1 10 Oeste 41 Sudoeste 1.2 -- -- 94
2021-01-22 02:00:00 5.4 18 Sudoeste 51 Sur 4.8 -- -- 90
2021-01-22 01:00:00 6.4 11 Sudoeste 42 Sur 5.4 -- -- 94
2021-01-22 00:00:00 6.7 12 Sudoeste 47 Sudoeste 4 -- -- 93
2021-01-21 23:00:00 7.4 13 Oeste 45 Sudoeste 2.6 -- -- 91
2021-01-21 22:00:00 8.7 19 Sudoeste 62 Sur 0.4 -- -- 85
2021-01-21 21:00:00 10.2 28 Sudoeste 71 Sudoeste 0 -- -- 72
2021-01-21 20:00:00 11.1 19 Oeste 62 Sudoeste 0 -- -- 64
2021-01-21 19:00:00 11.3 30 Sudoeste 80 Sur 0 -- -- 63
2021-01-21 18:00:00 11.6 26 Sudoeste 67 Sudoeste 0 -- -- 61
2021-01-21 17:00:00 12.7 19 Oeste 64 Sur 0 -- -- 57
2021-01-21 16:00:00 12.9 21 Noroeste 56 Sur 0 -- -- 59
2021-01-21 15:00:00 13.6 22 Oeste 58 Sudoeste 0 -- -- 60
2021-01-21 14:00:00 13.4 23 Oeste 64 Sudoeste 0 -- -- 62
2021-01-21 13:00:00 12.2 17 Noroeste 63 Sudoeste 0.2 -- -- 77
2021-01-21 12:00:00 10.8 21 Sudoeste 74 Sur 0 -- -- 84
2021-01-21 11:00:00 9.5 32 Sudoeste 81 Sudoeste 0.6 -- -- 85
2021-01-21 10:00:00 9.8 30 Sudoeste 74 Sur 0.2 -- -- 85
2021-01-21 09:00:00 11.1 27 Sudoeste 67 Sudoeste 0 -- -- 73
2021-01-21 08:00:00 10.5 26 Sudoeste 78 Sudoeste 0 -- -- 75
2021-01-21 07:00:00 10 23 Sudoeste 58 Sudoeste 0 -- -- 80
2021-01-21 06:00:00 10 16 Oeste 60 Sudoeste 0 -- -- 78
2021-01-21 05:00:00 10 9 Noroeste 51 Sudoeste 0 -- -- 79
2021-01-21 04:00:00 9.7 8 Noroeste 34 Sudoeste 0 -- -- 84
2021-01-21 03:00:00 10 11 Oeste 35 Sudoeste 0 -- -- 82
2021-01-21 02:00:00 10.1 10 Oeste 32 Oeste 0 -- -- 83
2021-01-21 01:00:00 10.2 13 Noroeste 31 Oeste 0 -- -- 83
2021-01-21 00:00:00 10.3 9 Noroeste 32 Sudoeste 0 -- -- 83
2021-01-20 23:00:00 9.9 14 Oeste 37 Sur 0 -- -- 87
2021-01-20 22:00:00 10.3 10 Oeste 43 Sudoeste 0.2 -- -- 84
2021-01-20 21:00:00 10.2 11 Oeste 34 Sudoeste 0 -- -- 83
2021-01-20 20:00:00 10.2 13 Oeste 37 Sur 0 -- -- 82
2021-01-20 19:00:00 10.2 9 Noroeste 42 Sudoeste 0 -- -- 83
2021-01-20 18:00:00 9.9 18 Sudoeste 40 Sudoeste 0.4 -- -- 88
2021-01-20 17:00:00 10.6 13 Oeste 45 Sur 0 -- -- 83
2021-01-20 16:00:00 10 10 Noroeste 51 Sudoeste 1.2 -- -- 88
2021-01-20 15:00:00 10.8 16 Oeste 54 Sudoeste 0 -- -- 80
2021-01-20 14:00:00 9.6 19 Sudoeste 57 Sudoeste 0.6 -- -- 87
2021-01-20 13:00:00 10.9 25 Sudoeste 59 Sudoeste 0 -- -- 75
2021-01-20 12:00:00 11.6 22 Sudoeste 64 Oeste 0 -- -- 65
2021-01-20 11:00:00 12.2 24 Sur 52 Sur 0 -- -- 60
2021-01-20 10:00:00 11.5 19 Sur 61 Sur 0 -- -- 62
2021-01-20 09:00:00 11.3 35 Sur 77 Sur 0 -- -- 59
2021-01-20 08:00:00 11.4 37 Sur 72 Sur 0 -- -- 57
2021-01-20 07:00:00 11.4 23 Sur 60 Este 0 -- -- 58
2021-01-20 06:00:00 11.2 16 Sur 55 Sur 0 -- -- 57
2021-01-20 05:00:00 11.7 28 Sur 68 Sur 0 -- -- 56
2021-01-20 04:00:00 11.6 33 Sur 65 Sur 0 -- -- 56
2021-01-20 03:00:00 10.5 12 Sudeste 48 Sudeste 0 -- -- 51
2021-01-20 02:00:00 10.8 31 Sudeste 44 Sur 0 -- -- 49
2021-01-20 01:00:00 11.9 33 Sur 50 Sur 0 -- -- 43
2021-01-20 00:00:00 11.6 26 Sur 46 Sur 0 -- -- 41
2021-01-19 23:00:00 11.1 15 Sur 38 Sur 0 -- -- 39
2021-01-19 22:00:00 11.6 18 Sur 49 Sudeste 0 -- -- 37
2021-01-19 21:00:00 12.1 27 Sur 42 Sur 0 -- -- 38
2021-01-19 20:00:00 12.4 15 Sudoeste 36 Sudoeste 0 -- -- 41
2021-01-19 19:00:00 12.1 18 Sur 39 Sur 0 -- -- 40
2021-01-19 18:00:00 12.4 16 Sur 35 Sur 0 -- -- 34
2021-01-19 17:00:00 12.6 11 Sur 46 Sur 0 -- -- 34
2021-01-19 16:00:00 13.2 26 Sur 46 Sur 0 -- -- 35
2021-01-19 15:00:00 13.3 12 Sudoeste 40 Sur 0 -- -- 32
2021-01-19 14:00:00 12.6 13 Sudoeste 42 Sur 0 -- -- 35
2021-01-19 13:00:00 12.1 8 Sudoeste 38 Sur 0 -- -- 35
2021-01-19 12:00:00 12.1 13 Sudoeste 33 Sur 0 -- -- 35
2021-01-19 11:00:00 10.8 6 Sudoeste 21 Sudoeste 0 -- -- 40
2021-01-19 10:00:00 9.5 5 Sur 26 Sudoeste 0 -- -- 44
2021-01-19 09:00:00 8.5 4 Sudeste 27 Sudoeste 0 -- -- 46
2021-01-19 08:00:00 7.5 4 Nordeste 14 Sudoeste 0 -- -- 51
2021-01-19 07:00:00 8 2 Sudeste 17 Sudeste 0 -- -- 57
2021-01-19 06:00:00 8.2 5 Nordeste 9 Oeste 0 -- -- 61
2021-01-19 05:00:00 7.8 5 Oeste 14 Sudoeste 0 -- -- 68
2021-01-19 04:00:00 7.9 8 Sudoeste 15 Sudoeste 0 -- -- 69
2021-01-19 03:00:00 7.5 6 Sur 19 Sudoeste 0 -- -- 74
2021-01-19 02:00:00 8.8 8 Sudeste 15 Sur 0 -- -- 69
2021-01-19 01:00:00 8.6 4 Sur 12 Sudoeste 0 -- -- 72
2021-01-19 00:00:00 8.9 11 Sudoeste 19 Sudoeste 0 -- -- 75
2021-01-18 23:00:00 9.1 8 Sur 18 Sudoeste 0 -- -- 76
2021-01-18 22:00:00 9.3 2 Norte 14 Sudoeste 0 -- -- 76
2021-01-18 21:00:00 9.4 6 Sur 11 Sur 0 -- -- 78
2021-01-18 20:00:00 10.2 0 Calma 4 Sudoeste 0 -- -- 74
2021-01-18 19:00:00 10.1 0 Calma 8 Sudeste 0 -- -- 81
2021-01-18 18:00:00 10.5 3 Sur 5 Sudoeste 0 -- -- 81
2021-01-18 17:00:00 11.7 0 Calma 4 Sur 0 -- -- 84
2021-01-18 16:00:00 12.1 2 Noroeste 5 Sur 0 -- -- 76
2021-01-18 15:00:00 11.6 0 Calma 10 Sudeste 0 -- -- 77
2021-01-18 14:00:00 10.2 4 Sur 9 Sur 0 -- -- 84
2021-01-18 13:00:00 7 3 Sudeste 7 Sur 0 -- -- 100
2021-01-18 12:00:00 6 2 Sudeste 8 Sur 0 -- -- 100
2021-01-18 11:00:00 5.8 4 Sudoeste 13 Oeste 0 -- -- 100
2021-01-18 10:00:00 5.9 5 Sur 11 Sur 0 -- -- 100
2021-01-18 09:00:00 6.5 6 Sudoeste 10 Sur 0 -- -- 99
2021-01-18 08:00:00 6.5 7 Sudoeste 13 Sudoeste 0 -- -- 100
2021-01-18 07:00:00 6.9 3 Sur 4 Sur 0 -- -- 100
2021-01-18 06:00:00 6.9 0 Calma 5 Sur 0 -- -- 100
2021-01-18 05:00:00 6.8 3 Sudoeste 5 Sudoeste 0.2 -- -- 100
2021-01-18 04:00:00 7.2 0 Calma 3 Sur 0 -- -- 100
2021-01-18 03:00:00 7.4 0 Calma 3 Sudeste 0 -- -- 100
2021-01-18 02:00:00 7.5 0 Calma 5 Sudeste 0 -- -- 100
2021-01-18 01:00:00 7.4 2 Sudeste 5 Sudeste 0 -- -- 100
2021-01-18 00:00:00 7.2 0 Calma 6 Sudeste 0.2 -- -- 100
2021-01-17 23:00:00 7.1 2 Este 8 Sudoeste 0.8 -- -- 100
2021-01-17 22:00:00 7.3 3 Oeste 8 Sudoeste 0.4 -- -- 100
2021-01-17 21:00:00 7.5 5 Sur 10 Sur 0 -- -- 99
2021-01-17 20:00:00 7.6 2 Este 17 Sur 0 -- -- 98
2021-01-17 19:00:00 8.1 6 Sur 16 Sudoeste 0 -- -- 93
2021-01-17 18:00:00 7.4 7 Sur 14 Sudoeste 0 -- -- 97
2021-01-17 17:00:00 7.5 0 Calma 6 Noroeste 0.4 -- -- 97
2021-01-17 16:00:00 8 2 Sudoeste 14 Sudoeste 0 -- -- 91
2021-01-17 15:00:00 8.1 3 Oeste 11 Sur 0 -- -- 84
2021-01-17 14:00:00 7.9 4 Noroeste 11 Nordeste 0 -- -- 81
2021-01-17 13:00:00 7 4 Noroeste 17 Sur 0 -- -- 76
2021-01-17 12:00:00 6.9 5 Sudoeste 25 Sur 0 -- -- 76
2021-01-17 11:00:00 7.2 9 Sudeste 17 Sur 0 -- -- 73
2021-01-17 10:00:00 5 0 Calma 14 Sudoeste 0 -- -- 67
2021-01-17 09:00:00 4.2 5 Sudeste 19 Sudoeste 0 -- -- 70
2021-01-17 08:00:00 5 8 Este 17 Sudoeste 0 -- -- 65
2021-01-17 07:00:00 5.8 6 Sudeste 12 Este 0 -- -- 59
2021-01-17 06:00:00 4.9 0 Calma 12 Oeste 0 -- -- 62
2021-01-17 05:00:00 5.4 4 Sur 17 Sudoeste 0 -- -- 57
2021-01-17 04:00:00 6.4 3 Sudeste 9 Noroeste 0 -- -- 56
2021-01-17 03:00:00 6.8 4 Oeste 12 Oeste 0 -- -- 56
2021-01-17 02:00:00 6.3 4 Oeste 10 Sudoeste 0 -- -- 61
2021-01-17 01:00:00 6.8 2 Norte 17 Sudeste 0 -- -- 59
2021-01-17 00:00:00 5.9 5 Sur 10 Sudoeste 0 -- -- 66
2021-01-16 23:00:00 7.3 5 Sur 15 Sudoeste 0 -- -- 58
2021-01-16 22:00:00 7.2 4 Noroeste 13 Sudoeste 0 -- -- 62
2021-01-16 21:00:00 7.4 3 Oeste 13 Este 0 -- -- 64
2021-01-16 20:00:00 7.9 8 Sudeste 12 Sudeste 0 -- -- 60
2021-01-16 19:00:00 8.8 3 Sudeste 8 Sur 0 -- -- 55
2021-01-16 18:00:00 9.6 0 Calma 11 Sur 0 -- -- 54
2021-01-16 17:00:00 10.7 4 Sudeste 7 Sur 0 -- -- 57
2021-01-16 16:00:00 11.4 3 Sudoeste 12 Sur 0 -- -- 57
2021-01-16 15:00:00 10.9 3 Sudeste 11 Sudeste 0 -- -- 57
2021-01-16 14:00:00 9 6 Sur 15 Sudeste 0 -- -- 60
2021-01-16 13:00:00 8.4 4 Sur 15 Sur 0 -- -- 64
2021-01-16 12:00:00 5.8 11 Sur 18 Sur 0 -- -- 70
2021-01-16 11:00:00 5.5 0 Calma 6 Sudeste 0 -- -- 76
2021-01-16 10:00:00 2.1 4 Sudeste 10 Sur 0 -- -- 77
2021-01-16 09:00:00 2.3 3 Sudeste 9 Sur 0 -- -- 78
2021-01-16 08:00:00 2.7 0 Calma 10 Norte 0 -- -- 78
2021-01-16 07:00:00 1.8 2 Norte 18 Sudoeste 0 -- -- 86
2021-01-16 06:00:00 2 2 Sudeste 8 Sur 0 -- -- 89
2021-01-16 05:00:00 1.7 2 Sudeste 4 Este 0 -- -- 94
2021-01-16 04:00:00 1.6 0 Calma 5 Sudoeste 0 -- -- 100
2021-01-16 03:00:00 1.2 0 Calma 4 Noroeste 0 -- -- 100
2021-01-16 02:00:00 1.1 2 Noroeste 6 Noroeste 0 -- -- 100
2021-01-16 01:00:00 1.3 2 Sur 12 Sudoeste 0 -- -- 100
2021-01-16 00:00:00 1.6 7 Sudoeste 11 Sudoeste 0 -- -- 100
2021-01-15 23:00:00 1.8 5 Sudoeste 9 Sudoeste 0 -- -- 100
2021-01-15 22:00:00 2.3 2 Noroeste 4 Noroeste 0 -- -- 100
2021-01-15 21:00:00 2.8 0 Calma 12 Sudoeste 0 -- -- 100
2021-01-15 20:00:00 4 0 Calma 15 Sudoeste 0 -- -- 98
2021-01-15 19:00:00 5.1 5 Sudoeste 11 Sudoeste 0 -- -- 96
2021-01-15 18:00:00 6.7 0 Calma 6 Sur 0 -- -- 90
2021-01-15 17:00:00 8.6 4 Sur 8 Sur 0 -- -- 85
2021-01-15 16:00:00 9.1 4 Sudoeste 11 Sur 0 -- -- 84
2021-01-15 15:00:00 8.3 4 Sudoeste 7 Sudoeste 0 -- -- 91
2021-01-15 14:00:00 7.2 5 Sur 9 Sur 0 -- -- 95
2021-01-15 13:00:00 6.9 5 Sur 10 Sudoeste -- -- -- 100
2021-01-15 12:00:00 5.3 2 Oeste 9 Sur -- -- -- 100
2021-01-15 11:00:00 3.5 5 Sur 12 Sur 0.2 -- -- 100
2021-01-15 10:00:00 2.3 6 Sur 12 Sudeste 0 -- -- 100
2021-01-15 09:00:00 2.5 0 Calma 14 Sudoeste 0 -- -- 100
2021-01-15 08:00:00 3.1 3 Norte 8 Sudoeste 0 -- -- 100
2021-01-15 07:00:00 3.2 4 Noroeste 6 Norte 0 -- -- 100
2021-01-15 06:00:00 3.9 5 Este 13 Sudoeste 0 -- -- 100
2021-01-15 05:00:00 4 4 Sudoeste 11 Sudoeste 0 -- -- 100
2021-01-15 04:00:00 4.3 2 Sudeste 8 Sudoeste 0 -- -- 100
2021-01-15 03:00:00 5 7 Este 10 Este 0 -- -- 100
2021-01-15 02:00:00 4.9 0 Calma 4 Oeste 0 -- -- 100
2021-01-15 01:00:00 5.1 4 Norte 7 Noroeste 0 -- -- 100
2021-01-15 00:00:00 5.4 3 Sur 11 Sudoeste 0 -- -- 100
2021-01-14 23:00:00 5.1 5 Oeste 10 Sudoeste 0 -- -- 100
2021-01-14 22:00:00 5.5 0 Calma 5 Sudoeste 0.4 -- -- 100
2021-01-14 21:00:00 5.2 2 Norte 10 Sudoeste 0 -- -- 100
2021-01-14 20:00:00 5.4 3 Este 9 Sudoeste 0.2 -- -- 100
2021-01-14 19:00:00 5.1 3 Norte 10 Sudoeste 0.6 -- -- 100
2021-01-14 18:00:00 5.1 2 Sudeste 6 Sudoeste 0.4 -- -- 100
2021-01-14 17:00:00 4.5 3 Sudeste 6 Sudoeste 1.4 -- -- 100
2021-01-14 16:00:00 4.6 4 Oeste 11 Sudoeste 0.4 -- -- 100
2021-01-14 15:00:00 4.7 0 Calma 6 Nordeste 0.2 -- -- 100
2021-01-14 14:00:00 3.9 3 Sudeste 7 Sudoeste 0 -- -- 96
2021-01-14 13:00:00 3.9 0 Calma 5 Sudoeste 0 -- -- 96
2021-01-14 12:00:00 3.5 2 Sudeste 6 Sudoeste 0 -- -- 92
2021-01-14 11:00:00 2.8 2 Sur 6 Sur 0 -- -- 92
2021-01-14 10:00:00 1.8 3 Oeste 9 Sur 0 -- -- 94
2021-01-14 09:00:00 1.4 6 Sur 15 Sudeste 0 -- -- 93
2021-01-14 08:00:00 1 4 Noroeste 15 Sudoeste 0 -- -- 93
2021-01-14 07:00:00 1.2 10 Sur 24 Sur 0 -- -- 94
2021-01-14 06:00:00 -0.3 7 Este 15 Sur 0 -- -- 93
2021-01-14 05:00:00 0.5 6 Sur 14 Sur 0 -- -- 90
2021-01-14 04:00:00 1.3 3 Este 9 Sudoeste 0 -- -- 93
2021-01-14 03:00:00 2 0 Calma 4 Norte 0 -- -- 95
2021-01-14 02:00:00 2.4 0 Calma 4 Este 0 -- -- 95
2021-01-14 01:00:00 2.8 3 Sudeste 4 Este 0 -- -- 94
2021-01-14 00:00:00 3.1 3 Este 5 Este 0 -- -- 94
2021-01-13 23:00:00 3.4 0 Calma 4 Sudoeste 0 -- -- 92
2021-01-13 22:00:00 4 3 Este 5 Sudeste 0 -- -- 91
2021-01-13 21:00:00 4.3 3 Sudeste 6 Este 0 -- -- 89
2021-01-13 20:00:00 4.5 0 Calma 4 Sudeste 0 -- -- 89
2021-01-13 19:00:00 4.8 2 Sudeste 9 Este 0 -- -- 87
2021-01-13 18:00:00 6 0 Calma 10 Oeste 0 -- -- 82
2021-01-13 17:00:00 8.3 4 Noroeste 5 Noroeste 0 -- -- 65
2021-01-13 16:00:00 8.3 3 Oeste 6 Oeste 0 -- -- 63
2021-01-13 15:00:00 8.3 0 Calma 10 Sur 0 -- -- 67
2021-01-13 14:00:00 7.9 3 Este 9 Sur 0 -- -- 72
2021-01-13 13:00:00 6.8 4 Sudoeste 10 Sur 0 -- -- 73
2021-01-13 12:00:00 5.2 5 Sur 11 Sudoeste 0 -- -- 79
2021-01-13 11:00:00 4.3 2 Sudeste 5 Sur 0 -- -- 89
2021-01-13 10:00:00 0.8 0 Calma 4 Sudoeste 0 -- -- 96
2021-01-13 09:00:00 0.9 0 Calma 3 Noroeste 0 -- -- 97
2021-01-13 08:00:00 1.2 0 Calma 7 Sudoeste 0 -- -- 95
2021-01-13 07:00:00 1 5 Sudoeste 9 Sudoeste 0 -- -- 95
2021-01-13 06:00:00 1.6 0 Calma 4 Nordeste 0 -- -- 95
2021-01-13 05:00:00 2 2 Sudeste 4 Sudeste 0 -- -- 95
2021-01-13 04:00:00 1.6 0 Calma 3 Noroeste 0 -- -- 94
2021-01-13 03:00:00 2 0 Calma 4 Sudeste 0 -- -- 94
2021-01-13 02:00:00 2.1 0 Calma 8 Sudoeste 0 -- -- 94
2021-01-13 01:00:00 2.7 0 Calma 2 Sur 0 -- -- 92
2021-01-13 00:00:00 3.2 0 Calma 6 Sur 0 -- -- 92
2021-01-12 23:00:00 3.5 0 Calma 3 Sudeste 0 -- -- 91
2021-01-12 22:00:00 4.3 2 Este 4 Este 0 -- -- 88
2021-01-12 21:00:00 4.5 2 Este 5 Este 0 -- -- 87
2021-01-12 20:00:00 4.5 2 Este 5 Este 0 -- -- 86
2021-01-12 19:00:00 4.7 0 Calma 9 Noroeste 0 -- -- 85
2021-01-12 18:00:00 4.8 9 Noroeste 15 Noroeste 0 -- -- 84
2021-01-12 17:00:00 6.1 10 Noroeste 16 Noroeste 0 -- -- 80
2021-01-12 16:00:00 7.1 4 Noroeste 8 Oeste 0 -- -- 71
2021-01-12 15:00:00 8.3 0 Calma 12 Sur 0 -- -- 62
2021-01-12 14:00:00 6.8 8 Sur 13 Sur 0 -- -- 62
2021-01-12 13:00:00 6.1 7 Sur 12 Sur 0 -- -- 70
2021-01-12 12:00:00 4.4 2 Norte 13 Sudoeste 0 -- -- 70
2021-01-12 11:00:00 3.3 4 Sudeste 7 Sudeste 0 -- -- 74
2021-01-12 10:00:00 0.5 0 Calma 4 Sudeste 0 -- -- 82
2021-01-12 09:00:00 0.5 0 Calma 4 Sudoeste 0 -- -- 82
2021-01-12 08:00:00 0.3 3 Sudeste 11 Sudoeste 0 -- -- 84
2021-01-12 07:00:00 0.8 4 Sudeste 10 Sur 0 -- -- 82
2021-01-12 06:00:00 0.9 3 Este 10 Sur 0 -- -- 82
2021-01-12 05:00:00 0.9 4 Oeste 9 Sudoeste 0 -- -- 82
2021-01-12 04:00:00 1.9 3 Sudeste 5 Este 0 -- -- 78
2021-01-12 03:00:00 1.6 0 Calma 9 Sudoeste 0 -- -- 79
2021-01-12 02:00:00 3 5 Sudoeste 7 Sur 0 -- -- 72
2021-01-12 01:00:00 3.3 2 Sur 7 Nordeste 0 -- -- 72
2021-01-12 00:00:00 3.9 3 Nordeste 13 Sudeste 0 -- -- 70
2021-01-11 23:00:00 4.2 3 Sudeste 12 Este 0 -- -- 69
2021-01-11 22:00:00 4.1 8 Sudeste 16 Sudeste 0 -- -- 71
2021-01-11 21:00:00 4.1 4 Norte 12 Este 0 -- -- 72
2021-01-11 20:00:00 4.2 4 Este 10 Este 0 -- -- 73
2021-01-11 19:00:00 4.3 4 Este 14 Este 0 -- -- 75
2021-01-11 18:00:00 5 8 Nordeste 17 Este 0 -- -- 72
2021-01-11 17:00:00 6.1 8 Nordeste 26 Este 0 -- -- 69
2021-01-11 16:00:00 6.3 14 Nordeste 21 Nordeste 0 -- -- 65
2021-01-11 15:00:00 6.9 9 Norte 24 Sudeste 0 -- -- 68
2021-01-11 14:00:00 7 15 Sudeste 27 Sudeste 0 -- -- 66
2021-01-11 13:00:00 6.9 9 Este 26 Sudeste 0 -- -- 66
2021-01-11 12:00:00 6.7 6 Este 27 Este 0 -- -- 68
2021-01-11 11:00:00 5.8 13 Este 28 Este 0 -- -- 70
2021-01-11 10:00:00 4 10 Este 21 Nordeste 0 -- -- 74
2021-01-11 09:00:00 3.3 14 Este 22 Este 0 -- -- 75
2021-01-11 08:00:00 3.4 8 Nordeste 18 Este 0 -- -- 76
2021-01-11 07:00:00 3.7 9 Este 19 Nordeste 0 -- -- 76
2021-01-11 06:00:00 3.5 8 Este 18 Nordeste 0 -- -- 76
2021-01-11 05:00:00 3.3 5 Nordeste 18 Nordeste 0 -- -- 80
2021-01-11 04:00:00 3.4 8 Nordeste 22 Este 0 -- -- 78
2021-01-11 03:00:00 3.3 15 Este 27 Este 0 -- -- 78
2021-01-11 02:00:00 3.3 9 Este 25 Este 0 -- -- 81
2021-01-11 01:00:00 3.6 15 Nordeste 27 Este 0 -- -- 83
2021-01-11 00:00:00 2.8 11 Este 30 Este 0.2 -- -- 88
2021-01-10 23:00:00 3.4 16 Nordeste 26 Este 0 -- -- 80
2021-01-10 22:00:00 3.5 9 Nordeste 25 Nordeste 0 -- -- 78
2021-01-10 21:00:00 3.4 10 Nordeste 25 Nordeste 0 -- -- 77
2021-01-10 20:00:00 3.3 11 Nordeste 27 Este 0 -- -- 79
2021-01-10 19:00:00 3.5 10 Este 27 Este 0 -- -- 79
2021-01-10 18:00:00 3.9 13 Este 32 Este 0 -- -- 76
2021-01-10 17:00:00 4.3 18 Nordeste 41 Nordeste 0 -- -- 77
2021-01-10 16:00:00 5 19 Nordeste 34 Nordeste 0 -- -- 73
2021-01-10 15:00:00 4 17 Este 39 Nordeste 0 -- -- 81
2021-01-10 14:00:00 4.6 18 Nordeste 47 Nordeste 0 -- -- 74
2021-01-10 13:00:00 4.6 19 Nordeste 39 Nordeste 0 -- -- 76
2021-01-10 12:00:00 4.1 22 Nordeste 40 Nordeste 0 -- -- 75
2021-01-10 11:00:00 4.8 17 Nordeste 37 Este 0 -- -- 72
2021-01-10 10:00:00 3.7 18 Nordeste 41 Nordeste 0 -- -- 78
2021-01-10 09:00:00 3.8 25 Nordeste 44 Nordeste 0 -- -- 80
2021-01-10 08:00:00 3.7 18 Nordeste 36 Nordeste 0 -- -- 84
2021-01-10 07:00:00 3.6 24 Nordeste 39 Nordeste 0 -- -- 81
2021-01-10 06:00:00 3.4 22 Nordeste 37 Nordeste 0 -- -- 87
2021-01-10 05:00:00 3.3 22 Nordeste 43 Nordeste 0 -- -- 90
2021-01-10 04:00:00 2.8 15 Nordeste 34 Nordeste 0.2 -- -- 100
2021-01-10 03:00:00 1.9 12 Nordeste 33 Este 1.2 -- -- 100
2021-01-10 02:00:00 1.8 19 Nordeste 41 Nordeste 2.2 -- -- 100
2021-01-10 01:00:00 2.5 14 Este 38 Nordeste 0 -- -- 100
2021-01-10 00:00:00 2.3 20 Este 47 Nordeste 0.2 -- -- 100
2021-01-09 23:00:00 1.9 18 Nordeste 52 Nordeste 1.8 -- -- 100
2021-01-09 22:00:00 1.9 21 Nordeste 43 Nordeste 1.2 -- -- 100
2021-01-09 21:00:00 2 23 Nordeste 39 Nordeste 0.8 -- -- 97
2021-01-09 20:00:00 1.8 19 Nordeste 43 Nordeste 1 -- -- 99
2021-01-09 19:00:00 2.2 21 Nordeste 66 Nordeste 0.2 -- -- 99
2021-01-09 18:00:00 1.9 28 Nordeste 52 Norte 1 -- -- 100
2021-01-09 17:00:00 2 31 Norte 56 Nordeste 0.4 -- -- 97
2021-01-09 16:00:00 1.5 32 Nordeste 58 Nordeste 0.8 -- -- 96
2021-01-09 15:00:00 2.6 28 Nordeste 44 Nordeste 0.2 -- -- 83
2021-01-09 14:00:00 2.8 23 Nordeste 50 Nordeste 0 -- -- 85
2021-01-09 13:00:00 2.2 13 Nordeste 38 Este 0.2 -- -- 89
2021-01-09 12:00:00 2.1 14 Nordeste 43 Este 0 -- -- 89
2021-01-09 11:00:00 1.5 12 Nordeste 43 Nordeste 0.4 -- -- 93
2021-01-09 10:00:00 1.1 15 Este 41 Nordeste 0 -- -- 93
2021-01-09 09:00:00 0.9 16 Nordeste 39 Este 0.2 -- -- 91
2021-01-09 08:00:00 0.3 18 Este 39 Este 0 -- -- 95
2021-01-09 07:00:00 0.8 23 Este 37 Este 0 -- -- 87
2021-01-09 06:00:00 1.8 17 Este 28 Este 0 -- -- 73
2021-01-09 05:00:00 1.8 15 Este 37 Este 0 -- -- 74
2021-01-09 04:00:00 1.6 19 Este 31 Este 0 -- -- 70
2021-01-09 03:00:00 1.6 14 Este 26 Este 0 -- -- 70
2021-01-09 02:00:00 1.6 10 Este 21 Este 0 -- -- 70
2021-01-09 01:00:00 1.8 9 Este 26 Este 0 -- -- 68
2021-01-09 00:00:00 2.1 13 Este 29 Este 0 -- -- 68
2021-01-08 23:00:00 1.3 15 Este 29 Este 0 -- -- 76
2021-01-08 22:00:00 1.3 9 Este 24 Este 0 -- -- 78
2021-01-08 21:00:00 1.6 12 Este 27 Este 0 -- -- 80
2021-01-08 20:00:00 1.7 8 Este 16 Este 0 -- -- 81
2021-01-08 19:00:00 1.7 10 Este 19 Este 0 -- -- 83
2021-01-08 18:00:00 2.3 12 Este 24 Nordeste 0 -- -- 81
2021-01-08 17:00:00 2.9 16 Nordeste 24 Nordeste 0 -- -- 76
2021-01-08 16:00:00 5.4 7 Este 27 Este 0 -- -- 65
2021-01-08 15:00:00 5 16 Este 32 Este 0 -- -- 64
2021-01-08 14:00:00 4.6 20 Este 33 Este 0 -- -- 66
2021-01-08 13:00:00 4.3 20 Sudeste 32 Este 0 -- -- 65
2021-01-08 12:00:00 4.2 17 Sudeste 31 Sudeste 0 -- -- 64
2021-01-08 11:00:00 3.6 12 Este 21 Este 0 -- -- 64
2021-01-08 10:00:00 2.2 14 Este 25 Este 0 -- -- 61
2021-01-08 09:00:00 1.5 9 Este 19 Nordeste 0 -- -- 65
2021-01-08 08:00:00 1.2 7 Este 20 Este 0 -- -- 70
2021-01-08 07:00:00 1 10 Este 22 Este 0 -- -- 74
2021-01-08 06:00:00 1.3 8 Este 14 Este 0 -- -- 73
2021-01-08 05:00:00 1.7 6 Este 16 Este 0 -- -- 73
2021-01-08 04:00:00 2 8 Este 19 Este 0 -- -- 71
2021-01-08 03:00:00 1.9 14 Este 30 Este 0 -- -- 74
2021-01-08 02:00:00 1.9 9 Sudeste 17 Este 0 -- -- 76
2021-01-08 01:00:00 2.1 12 Este 23 Este 0 -- -- 76
2021-01-08 00:00:00 2 8 Este 22 Este 0 -- -- 79
2021-01-07 23:00:00 1.8 11 Sudeste 19 Sudeste 0 -- -- 84
2021-01-07 22:00:00 1.9 3 Sudoeste 9 Este 0 -- -- 85
2021-01-07 21:00:00 2.2 5 Sudeste 9 Este 0 -- -- 87
2021-01-07 20:00:00 2 3 Sudeste 6 Este 0 -- -- 91
2021-01-07 19:00:00 2.4 2 Este 5 Sur 0 -- -- 91
2021-01-07 18:00:00 3.3 0 Calma 4 Sudoeste 0 -- -- 89
2021-01-07 17:00:00 4.7 3 Noroeste 8 Noroeste 0 -- -- 86
2021-01-07 16:00:00 4.9 4 Sur 10 Sur 0 -- -- 84
2021-01-07 15:00:00 3.7 2 Noroeste 9 Sur 0 -- -- 89
2021-01-07 14:00:00 2.9 0 Calma 10 Sudoeste 0 -- -- 93
2021-01-07 13:00:00 1.4 3 Oeste 10 Sur 0 -- -- 94
2021-01-07 12:00:00 1.6 5 Sur 11 Sur 0 -- -- 95
2021-01-07 11:00:00 0.5 0 Calma 12 Sudoeste 0.2 -- -- 100
2021-01-07 10:00:00 -1.6 2 Sudoeste 13 Sudoeste 0 -- -- 100
2021-01-07 09:00:00 -1.8 0 Calma 7 Sudoeste 0 -- -- 100
2021-01-07 08:00:00 -1.8 3 Oeste 10 Sudoeste 0 -- -- 100
2021-01-07 07:00:00 -1.7 0 Calma 10 Sur 0 -- -- 100
2021-01-07 06:00:00 -1.6 3 Oeste 12 Sudoeste 0 -- -- 100
2021-01-07 05:00:00 -1.5 0 Calma 7 Sur 0 -- -- 100
2021-01-07 04:00:00 -1.4 6 Sudoeste 10 Sudoeste 0 -- -- 100
2021-01-07 03:00:00 -0.8 2 Sur 6 Noroeste 0 -- -- 98
2021-01-07 02:00:00 -0.2 3 Sur 5 Sur 0 -- -- 96
2021-01-07 01:00:00 0.2 3 Norte 8 Este 0 -- -- 93
2021-01-07 00:00:00 0.6 7 Este 9 Este 0 -- -- 93
2021-01-06 23:00:00 0.9 2 Sudeste 6 Noroeste 0 -- -- 92
2021-01-06 22:00:00 1.4 0 Calma 5 Oeste 0 -- -- 92
2021-01-06 21:00:00 1.8 3 Sudeste 6 Este 0 -- -- 93
2021-01-06 20:00:00 1.5 2 Sudeste 8 Sudeste 0 -- -- 97
2021-01-06 19:00:00 2.1 4 Sudeste 20 Noroeste 0 -- -- 96
2021-01-06 18:00:00 2.9 4 Noroeste 7 Noroeste 0 -- -- 92
2021-01-06 17:00:00 3.8 4 Noroeste 8 Noroeste 0 -- -- 88
2021-01-06 16:00:00 4.4 7 Nordeste 10 Nordeste 0 -- -- 85
2021-01-06 15:00:00 5.9 3 Este 10 Este 0 -- -- 86
2021-01-06 14:00:00 3.8 2 Noroeste 9 Sudoeste 0 -- -- 90
2021-01-06 13:00:00 3.9 4 Noroeste 9 Sudeste 0 -- -- 89
2021-01-06 12:00:00 3.2 0 Calma 12 Sur 0 -- -- 96
2021-01-06 11:00:00 2.5 4 Este 8 Sur 0 -- -- 100
2021-01-06 10:00:00 0.9 3 Noroeste 5 Noroeste 0 -- -- 100
2021-01-06 09:00:00 0.2 4 Sudeste 8 Sur 0 -- -- 100
2021-01-06 08:00:00 0.5 2 Norte 5 Noroeste 0 -- -- 100
2021-01-06 07:00:00 1 0 Calma 8 Sudoeste 0 -- -- 100
2021-01-06 06:00:00 1.1 5 Sur 9 Sudoeste 0 -- -- 99
2021-01-06 05:00:00 1.5 5 Sudoeste 8 Sudoeste 0 -- -- 98
2021-01-06 04:00:00 1.8 4 Nordeste 9 Este 0 -- -- 97
2021-01-06 03:00:00 1.5 3 Sur 9 Sur 0 -- -- 100
2021-01-06 02:00:00 1.3 4 Sudoeste 8 Sudeste 0 -- -- 100
2021-01-06 01:00:00 1.6 0 Calma 9 Este 0 -- -- 98
2021-01-06 00:00:00 1.6 0 Calma 5 Sudeste 0 -- -- 99
2021-01-05 23:00:00 1.4 3 Sudeste 6 Sudoeste 0 -- -- 100
2021-01-05 22:00:00 1.8 4 Sur 9 Noroeste 0 -- -- 98
2021-01-05 21:00:00 2.1 0 Calma 4 Este 0 -- -- 97
2021-01-05 20:00:00 2.2 3 Este 8 Este 0 -- -- 98
2021-01-05 19:00:00 2.2 0 Calma 10 Sudeste 0 -- -- 100
2021-01-05 18:00:00 2.5 0 Calma 4 Este 0 -- -- 99
2021-01-05 17:00:00 2.6 3 Sur 6 Noroeste 0 -- -- 99
2021-01-05 16:00:00 2.7 4 Sudoeste 9 Sur 0 -- -- 98
2021-01-05 15:00:00 2.3 4 Sudeste 8 Sur 0.2 -- -- 99
2021-01-05 14:00:00 1.8 8 Sur 16 Sur 0.4 -- -- 99
2021-01-05 13:00:00 1.4 3 Noroeste 13 Sudoeste 0.8 -- -- 100
2021-01-05 12:00:00 1.4 3 Oeste 15 Sudoeste 1 -- -- 99
2021-01-05 11:00:00 1.1 5 Sudoeste 14 Sur 0.8 -- -- 100
2021-01-05 10:00:00 0.8 3 Noroeste 12 Sudoeste 1.6 -- -- 99
2021-01-05 09:00:00 0.3 4 Sur 10 Sudoeste 0.4 -- -- 100
2021-01-05 08:00:00 -0.1 3 Sur 14 Sudoeste 0.4 -- -- 100
2021-01-05 07:00:00 0.6 6 Sur 12 Sudoeste 0.4 -- -- 100
2021-01-05 06:00:00 0.6 4 Sudoeste 11 Oeste 0 -- -- 100
2021-01-05 05:00:00 0.8 2 Sudoeste 11 Sudeste 0.2 -- -- 100
2021-01-05 04:00:00 0.6 4 Sudeste 12 Sudoeste 0 -- -- 100
2021-01-05 03:00:00 0.4 3 Sur 8 Sur 0.2 -- -- 100
2021-01-05 02:00:00 0.6 3 Sudoeste 12 Este 0.4 -- -- 100
2021-01-05 01:00:00 0.5 0 Calma 6 Sur 0.8 -- -- 100
2021-01-05 00:00:00 0.9 0 Calma 6 Sur 0.2 -- -- 100
2021-01-04 23:00:00 0.6 3 Sudeste 7 Este 0.2 -- -- 100
2021-01-04 22:00:00 0 6 Este 11 Este 0.6 -- -- 100
2021-01-04 21:00:00 0.3 3 Sur 9 Sur 0.8 -- -- 100
2021-01-04 20:00:00 0.2 7 Sudeste 12 Sur 1.6 -- -- 99
2021-01-04 19:00:00 0.5 3 Sudeste 8 Este 0 -- -- 97
2021-01-04 18:00:00 0.7 4 Sur 19 Nordeste 1.2 -- -- 97
2021-01-04 17:00:00 1.4 3 Sudeste 9 Sudeste 0 -- -- 100
2021-01-04 16:00:00 0.9 5 Sudeste 12 Sur 1.4 -- -- 100
2021-01-04 15:00:00 1.4 9 Oeste 20 Noroeste 0.8 -- -- 98
2021-01-04 14:00:00 2.8 3 Oeste 13 Sudoeste 0.2 -- -- 97
2021-01-04 13:00:00 2 4 Oeste 10 Sudoeste 0.2 -- -- 100
2021-01-04 12:00:00 1.3 3 Oeste 13 Sudoeste 1.6 -- -- 100
2021-01-04 11:00:00 2.2 5 Sur 18 Sur 1.6 -- -- 100
2021-01-04 10:00:00 -0.2 8 Este 15 Nordeste 0.4 -- -- 100
2021-01-04 09:00:00 0.4 8 Sur 13 Sur 0.8 -- -- 100
2021-01-04 08:00:00 0.5 3 Sur 9 Este 0.6 -- -- 100
2021-01-04 07:00:00 0.3 3 Sur 12 Sur 1 -- -- 100
2021-01-04 06:00:00 0.9 6 Oeste 13 Sur 0.8 -- -- 100
2021-01-04 05:00:00 0.7 5 Sur 13 Sur 0.6 -- -- 100
2021-01-04 04:00:00 1.2 4 Sudoeste 18 Noroeste 1.4 -- -- 100
2021-01-04 03:00:00 1.6 8 Sudoeste 18 Sudoeste 0.6 -- -- 99
2021-01-04 02:00:00 1.1 7 Sudoeste 15 Sudoeste 0.8 -- -- 100
2021-01-04 01:00:00 0.7 7 Sur 15 Sur 0.8 -- -- 100
2021-01-04 00:00:00 1.1 5 Oeste 19 Sudoeste 1 -- -- 99
2021-01-03 23:00:00 0.8 4 Sudeste 10 Oeste 1 -- -- 100
2021-01-03 22:00:00 1.3 5 Oeste 15 Sudoeste 1 -- -- 98
2021-01-03 21:00:00 1.4 5 Sudoeste 13 Sur 0.4 -- -- 98
2021-01-03 20:00:00 1.6 9 Sur 19 Sur 0 -- -- 99
2021-01-03 19:00:00 2.4 8 Sudoeste 18 Sudoeste 0.6 -- -- 97
2021-01-03 18:00:00 2.6 0 Calma 16 Sur 0 -- -- 96
2021-01-03 17:00:00 2.5 4 Sudoeste 10 Sur 0 -- -- 99
2021-01-03 16:00:00 2.5 5 Noroeste 14 Sudoeste 1.6 -- -- 100
2021-01-03 15:00:00 2.7 3 Sur 18 Sur 0.8 -- -- 99
2021-01-03 14:00:00 1.5 9 Sur 14 Oeste 1.8 -- -- 100
2021-01-03 13:00:00 2.4 6 Noroeste 23 Noroeste 2 -- -- 100
2021-01-03 12:00:00 2.9 3 Oeste 18 Sur 0.8 -- -- 96
2021-01-03 11:00:00 2.6 6 Sudoeste 21 Sur 0.4 -- -- 98
2021-01-03 10:00:00 2.2 6 Sur 17 Sur 0.8 -- -- 99
2021-01-03 09:00:00 1.9 5 Sur 15 Sur 0 -- -- 99
2021-01-03 08:00:00 2 2 Oeste 18 Sur 0.4 -- -- 99
2021-01-03 07:00:00 2 5 Sudoeste 18 Sur 0 -- -- 99
2021-01-03 06:00:00 1.6 10 Sur 17 Sur 1.4 -- -- 100
2021-01-03 05:00:00 2.1 4 Sudoeste 18 Sudoeste 0.2 -- -- 97
2021-01-03 04:00:00 2 8 Sudoeste 15 Sudoeste 0 -- -- 99
2021-01-03 03:00:00 2.1 5 Sudoeste 13 Sudoeste 0.2 -- -- 100
2021-01-03 02:00:00 2.3 4 Sudoeste 13 Sudoeste 0.8 -- -- 98
2021-01-03 01:00:00 2.4 4 Sur 9 Sur 0 -- -- 100
2021-01-03 00:00:00 2.4 4 Sudoeste 9 Noroeste 1 -- -- 100
2021-01-02 23:00:00 2.1 5 Sudeste 10 Sur 0 -- -- 99
2021-01-02 22:00:00 2.3 0 Calma 6 Sur 0 -- -- 96
2021-01-02 21:00:00 2.3 4 Sur 13 Sur 0 -- -- 95
2021-01-02 20:00:00 1.9 2 Sur 8 Sudeste 0 -- -- 97
2021-01-02 19:00:00 1.6 3 Sur 12 Sudeste 0.2 -- -- 99
2021-01-02 18:00:00 1.2 0 Calma 10 Sur 0.2 -- -- 100
2021-01-02 17:00:00 1.7 6 Sudeste 12 Este 2.6 -- -- 99
2021-01-02 16:00:00 2.6 2 Nordeste 12 Sur 0.2 -- -- 98
2021-01-02 15:00:00 2.5 2 Noroeste 11 Sur 0.4 -- -- 97
2021-01-02 14:00:00 2.4 2 Sudeste 8 Sur 0 -- -- 100